Abegondo, Spain
Current Conditions -  °F | °C
As of 1:00 AM on Monday 24 Nov 2014 (Local Time) from LECO Reporting Station
Broken Clouds Broken Clouds  
Wind Chill: 55°   Ceiling: 2500
Heat Index: 55°   Visibility: 6mi
Dew Point: 52°   Wind: 8mph
Humidity: 88%   Direction: 10°N
Pressure: 30.12"   Gusts: NA
Location:  43.22°N, 8.28°W
Report Text: LECO 240000Z 01007KT 340V040 9999 FEW020 BKN025 13/11 Q1020 TEMPO BKN014
Loading
Personal Weather Stations






























Interactive Weather Map New forecast layout! Learn more

10-Day Weather Forecast

Advertisements
Track Severe Weather on mobile